sensor_id;sensor_type;location;lat;lon;timestamp;temperature;humidity
17385;DHT22;8810;48.680;8.894;2022-11-27T00:00:03;1.80;99.90
17385;DHT22;8810;48.680;8.894;2022-11-27T00:02:31;1.80;99.90
17385;DHT22;8810;48.680;8.894;2022-11-27T00:04:58;1.70;99.90
17385;DHT22;8810;48.680;8.894;2022-11-27T00:07:25;1.80;99.90
17385;DHT22;8810;48.680;8.894;2022-11-27T00:09:51;1.70;99.90
17385;DHT22;8810;48.680;8.894;2022-11-27T00:12:18;1.70;99.90
17385;DHT22;8810;48.680;8.894;2022-11-27T00:14:45;1.60;99.90
17385;DHT22;8810;48.680;8.894;2022-11-27T00:17:14;1.60;99.90
17385;DHT22;8810;48.680;8.894;2022-11-27T00:19:41;1.50;99.90
17385;DHT22;8810;48.680;8.894;2022-11-27T00:22:08;1.50;99.90
17385;DHT22;8810;48.680;8.894;2022-11-27T00:24:35;1.40;99.90
17385;DHT22;8810;48.680;8.894;2022-11-27T00:27:02;1.40;99.90
17385;DHT22;8810;48.680;8.894;2022-11-27T00:29:28;1.40;99.90
17385;DHT22;8810;48.680;8.894;2022-11-27T00:31:56;1.40;99.90
17385;DHT22;8810;48.680;8.894;2022-11-27T00:34:24;1.40;99.90
17385;DHT22;8810;48.680;8.894;2022-11-27T00:36:51;1.40;99.90
17385;DHT22;8810;48.680;8.894;2022-11-27T00:39:18;1.40;99.90
17385;DHT22;8810;48.680;8.894;2022-11-27T00:41:44;1.40;99.90
17385;DHT22;8810;48.680;8.894;2022-11-27T00:44:12;1.40;99.90
17385;DHT22;8810;48.680;8.894;2022-11-27T00:46:39;1.40;99.90
17385;DHT22;8810;48.680;8.894;2022-11-27T00:49:07;1.50;99.90
17385;DHT22;8810;48.680;8.894;2022-11-27T00:51:35;1.50;99.90
17385;DHT22;8810;48.680;8.894;2022-11-27T00:54:03;1.40;99.90
17385;DHT22;8810;48.680;8.894;2022-11-27T00:56:33;1.40;99.90
17385;DHT22;8810;48.680;8.894;2022-11-27T00:59:00;1.40;99.90
17385;DHT22;8810;48.680;8.894;2022-11-27T01:01:29;1.40;99.90
17385;DHT22;8810;48.680;8.894;2022-11-27T01:03:57;1.40;99.90
17385;DHT22;8810;48.680;8.894;2022-11-27T01:06:25;1.40;99.90
17385;DHT22;8810;48.680;8.894;2022-11-27T01:08:53;1.40;99.90
17385;DHT22;8810;48.680;8.894;2022-11-27T01:11:22;1.40;99.90
17385;DHT22;8810;48.680;8.894;2022-11-27T01:13:50;1.30;99.90
17385;DHT22;8810;48.680;8.894;2022-11-27T01:16:19;1.30;99.90
17385;DHT22;8810;48.680;8.894;2022-11-27T01:18:47;1.30;99.90
17385;DHT22;8810;48.680;8.894;2022-11-27T01:21:17;1.30;99.90
17385;DHT22;8810;48.680;8.894;2022-11-27T01:23:44;1.30;99.90
17385;DHT22;8810;48.680;8.894;2022-11-27T01:26:13;1.30;99.90
17385;DHT22;8810;48.680;8.894;2022-11-27T01:28:40;1.20;99.90
17385;DHT22;8810;48.680;8.894;2022-11-27T01:31:09;1.10;99.90
17385;DHT22;8810;48.680;8.894;2022-11-27T01:33:37;1.10;99.90
17385;DHT22;8810;48.680;8.894;2022-11-27T01:36:06;1.00;99.90
17385;DHT22;8810;48.680;8.894;2022-11-27T01:38:33;1.10;99.90
17385;DHT22;8810;48.680;8.894;2022-11-27T01:41:02;1.00;99.90
17385;DHT22;8810;48.680;8.894;2022-11-27T01:43:38;1.00;99.90
17385;DHT22;8810;48.680;8.894;2022-11-27T01:46:17;1.00;99.90
17385;DHT22;8810;48.680;8.894;2022-11-27T01:48:46;1.00;99.90
17385;DHT22;8810;48.680;8.894;2022-11-27T01:51:13;1.00;99.90
17385;DHT22;8810;48.680;8.894;2022-11-27T01:53:40;1.00;99.90
17385;DHT22;8810;48.680;8.894;2022-11-27T01:56:07;1.00;99.90
17385;DHT22;8810;48.680;8.894;2022-11-27T01:58:36;1.00;99.90
17385;DHT22;8810;48.680;8.894;2022-11-27T02:01:04;1.10;99.90
17385;DHT22;8810;48.680;8.894;2022-11-27T02:03:32;1.00;99.90
17385;DHT22;8810;48.680;8.894;2022-11-27T02:05:59;1.00;99.90
17385;DHT22;8810;48.680;8.894;2022-11-27T02:08:26;1.00;99.90
17385;DHT22;8810;48.680;8.894;2022-11-27T02:10:59;0.90;99.90
17385;DHT22;8810;48.680;8.894;2022-11-27T02:13:31;0.90;99.90
17385;DHT22;8810;48.680;8.894;2022-11-27T02:16:08;0.80;99.90
17385;DHT22;8810;48.680;8.894;2022-11-27T02:18:41;0.80;99.90
17385;DHT22;8810;48.680;8.894;2022-11-27T02:21:13;0.80;99.90
17385;DHT22;8810;48.680;8.894;2022-11-27T02:23:55;0.80;99.90
17385;DHT22;8810;48.680;8.894;2022-11-27T02:26:42;0.80;99.90
17385;DHT22;8810;48.680;8.894;2022-11-27T02:29:16;0.80;99.90
17385;DHT22;8810;48.680;8.894;2022-11-27T02:31:51;0.80;99.90
17385;DHT22;8810;48.680;8.894;2022-11-27T02:34:26;0.80;99.90
17385;DHT22;8810;48.680;8.894;2022-11-27T02:36:59;0.70;99.90
17385;DHT22;8810;48.680;8.894;2022-11-27T02:39:33;0.70;99.90
17385;DHT22;8810;48.680;8.894;2022-11-27T02:42:06;0.70;99.90
17385;DHT22;8810;48.680;8.894;2022-11-27T02:44:39;0.70;99.90
17385;DHT22;8810;48.680;8.894;2022-11-27T02:47:08;0.70;99.90
17385;DHT22;8810;48.680;8.894;2022-11-27T02:49:37;0.60;99.90
17385;DHT22;8810;48.680;8.894;2022-11-27T02:52:05;0.60;99.90
17385;DHT22;8810;48.680;8.894;2022-11-27T02:54:33;0.60;99.90
17385;DHT22;8810;48.680;8.894;2022-11-27T02:57:04;0.50;99.90
17385;DHT22;8810;48.680;8.894;2022-11-27T02:59:34;0.50;99.90
17385;DHT22;8810;48.680;8.894;2022-11-27T03:02:06;0.60;99.90
17385;DHT22;8810;48.680;8.894;2022-11-27T03:04:39;0.50;99.90
17385;DHT22;8810;48.680;8.894;2022-11-27T03:07:12;0.50;99.90
17385;DHT22;8810;48.680;8.894;2022-11-27T03:09:43;0.60;99.90
17385;DHT22;8810;48.680;8.894;2022-11-27T03:12:12;0.60;99.90
17385;DHT22;8810;48.680;8.894;2022-11-27T03:14:43;0.60;99.90
17385;DHT22;8810;48.680;8.894;2022-11-27T03:17:18;0.60;99.90
17385;DHT22;8810;48.680;8.894;2022-11-27T03:19:50;0.60;99.90
17385;DHT22;8810;48.680;8.894;2022-11-27T03:22:18;0.70;99.90
17385;DHT22;8810;48.680;8.894;2022-11-27T03:24:45;0.70;99.90
17385;DHT22;8810;48.680;8.894;2022-11-27T03:27:17;0.70;99.90
17385;DHT22;8810;48.680;8.894;2022-11-27T03:29:49;0.70;99.90
17385;DHT22;8810;48.680;8.894;2022-11-27T03:32:17;0.70;99.90
17385;DHT22;8810;48.680;8.894;2022-11-27T03:34:45;0.70;99.90
17385;DHT22;8810;48.680;8.894;2022-11-27T03:37:12;0.60;99.90
17385;DHT22;8810;48.680;8.894;2022-11-27T03:39:39;0.60;99.90
17385;DHT22;8810;48.680;8.894;2022-11-27T03:42:14;0.60;99.90
17385;DHT22;8810;48.680;8.894;2022-11-27T03:44:50;0.60;99.90
17385;DHT22;8810;48.680;8.894;2022-11-27T03:47:30;0.60;99.90
17385;DHT22;8810;48.680;8.894;2022-11-27T03:50:12;0.50;99.90
17385;DHT22;8810;48.680;8.894;2022-11-27T03:52:48;0.50;99.90
17385;DHT22;8810;48.680;8.894;2022-11-27T03:55:22;0.60;99.90
17385;DHT22;8810;48.680;8.894;2022-11-27T03:57:58;0.60;99.90
17385;DHT22;8810;48.680;8.894;2022-11-27T04:00:30;0.50;99.90
17385;DHT22;8810;48.680;8.894;2022-11-27T04:02:58;0.50;99.90
17385;DHT22;8810;48.680;8.894;2022-11-27T04:05:25;0.40;99.90
17385;DHT22;8810;48.680;8.894;2022-11-27T04:07:52;0.40;99.90
17385;DHT22;8810;48.680;8.894;2022-11-27T04:10:19;0.30;99.90
17385;DHT22;8810;48.680;8.894;2022-11-27T04:12:46;0.30;99.90
17385;DHT22;8810;48.680;8.894;2022-11-27T04:15:13;0.20;99.90
17385;DHT22;8810;48.680;8.894;2022-11-27T04:17:41;0.10;99.90
17385;DHT22;8810;48.680;8.894;2022-11-27T04:20:11;0.10;99.90
17385;DHT22;8810;48.680;8.894;2022-11-27T04:22:38;0.20;99.90
17385;DHT22;8810;48.680;8.894;2022-11-27T04:25:05;0.20;99.90
17385;DHT22;8810;48.680;8.894;2022-11-27T04:27:32;0.10;99.90
17385;DHT22;8810;48.680;8.894;2022-11-27T04:29:59;0.10;99.90
17385;DHT22;8810;48.680;8.894;2022-11-27T04:32:26;0.10;99.90
17385;DHT22;8810;48.680;8.894;2022-11-27T04:34:54;0.10;99.90
17385;DHT22;8810;48.680;8.894;2022-11-27T04:37:21;0.10;99.90
17385;DHT22;8810;48.680;8.894;2022-11-27T04:39:48;0.10;99.90
17385;DHT22;8810;48.680;8.894;2022-11-27T04:42:14;0.10;99.90
17385;DHT22;8810;48.680;8.894;2022-11-27T04:44:41;0.00;99.90
17385;DHT22;8810;48.680;8.894;2022-11-27T04:47:08;0.00;99.90
17385;DHT22;8810;48.680;8.894;2022-11-27T04:49:35;-0.10;99.90
17385;DHT22;8810;48.680;8.894;2022-11-27T04:52:03;-0.10;99.90
17385;DHT22;8810;48.680;8.894;2022-11-27T04:54:30;-0.10;99.90
17385;DHT22;8810;48.680;8.894;2022-11-27T04:56:57;-0.10;99.90
17385;DHT22;8810;48.680;8.894;2022-11-27T04:59:24;-0.20;99.90
17385;DHT22;8810;48.680;8.894;2022-11-27T05:01:50;-0.30;99.90
17385;DHT22;8810;48.680;8.894;2022-11-27T05:04:17;-0.30;99.90
17385;DHT22;8810;48.680;8.894;2022-11-27T05:06:44;-0.30;99.90
17385;DHT22;8810;48.680;8.894;2022-11-27T05:09:12;-0.40;99.90
17385;DHT22;8810;48.680;8.894;2022-11-27T05:11:39;-0.40;99.90
17385;DHT22;8810;48.680;8.894;2022-11-27T05:14:06;-0.50;99.90
17385;DHT22;8810;48.680;8.894;2022-11-27T05:16:43;-0.50;99.90
17385;DHT22;8810;48.680;8.894;2022-11-27T05:19:12;-0.60;99.90
17385;DHT22;8810;48.680;8.894;2022-11-27T05:21:39;-0.60;99.90
17385;DHT22;8810;48.680;8.894;2022-11-27T05:24:07;-0.60;99.90
17385;DHT22;8810;48.680;8.894;2022-11-27T05:26:36;-0.60;99.90
17385;DHT22;8810;48.680;8.894;2022-11-27T05:29:03;-0.60;99.90
17385;DHT22;8810;48.680;8.894;2022-11-27T05:31:30;-0.60;99.90
17385;DHT22;8810;48.680;8.894;2022-11-27T05:33:57;-0.60;99.90
17385;DHT22;8810;48.680;8.894;2022-11-27T05:36:24;-0.60;99.90
17385;DHT22;8810;48.680;8.894;2022-11-27T05:38:51;-0.60;99.90
17385;DHT22;8810;48.680;8.894;2022-11-27T05:41:18;-0.60;99.90
17385;DHT22;8810;48.680;8.894;2022-11-27T05:43:46;-0.60;99.90
17385;DHT22;8810;48.680;8.894;2022-11-27T05:46:15;-0.70;99.90
17385;DHT22;8810;48.680;8.894;2022-11-27T05:48:42;-0.70;99.90
17385;DHT22;8810;48.680;8.894;2022-11-27T05:51:09;-0.80;99.90
17385;DHT22;8810;48.680;8.894;2022-11-27T05:53:36;-0.80;99.90
17385;DHT22;8810;48.680;8.894;2022-11-27T05:56:05;-0.80;99.90
17385;DHT22;8810;48.680;8.894;2022-11-27T05:58:32;-0.80;99.90
17385;DHT22;8810;48.680;8.894;2022-11-27T06:01:00;-0.90;99.90
17385;DHT22;8810;48.680;8.894;2022-11-27T06:03:28;-1.00;99.90
17385;DHT22;8810;48.680;8.894;2022-11-27T06:05:55;-1.00;99.90
17385;DHT22;8810;48.680;8.894;2022-11-27T06:08:22;-1.00;99.90
17385;DHT22;8810;48.680;8.894;2022-11-27T06:10:49;-1.10;99.90
17385;DHT22;8810;48.680;8.894;2022-11-27T06:13:16;-1.10;99.90
17385;DHT22;8810;48.680;8.894;2022-11-27T06:15:43;-1.10;99.90
17385;DHT22;8810;48.680;8.894;2022-11-27T06:18:11;-1.20;99.90
17385;DHT22;8810;48.680;8.894;2022-11-27T06:20:38;-1.20;99.90
17385;DHT22;8810;48.680;8.894;2022-11-27T06:23:05;-1.20;99.90
17385;DHT22;8810;48.680;8.894;2022-11-27T06:25:32;-1.20;99.90
17385;DHT22;8810;48.680;8.894;2022-11-27T06:27:58;-1.20;99.90
17385;DHT22;8810;48.680;8.894;2022-11-27T06:30:25;-1.20;99.90
17385;DHT22;8810;48.680;8.894;2022-11-27T06:32:52;-1.30;99.90
17385;DHT22;8810;48.680;8.894;2022-11-27T06:35:20;-1.30;99.90
17385;DHT22;8810;48.680;8.894;2022-11-27T06:37:47;-1.40;99.90
17385;DHT22;8810;48.680;8.894;2022-11-27T06:40:14;-1.30;99.90
17385;DHT22;8810;48.680;8.894;2022-11-27T06:42:41;-1.30;99.90
17385;DHT22;8810;48.680;8.894;2022-11-27T06:45:09;-1.30;99.90
17385;DHT22;8810;48.680;8.894;2022-11-27T06:47:36;-1.30;99.90
17385;DHT22;8810;48.680;8.894;2022-11-27T06:50:03;-1.30;99.90
17385;DHT22;8810;48.680;8.894;2022-11-27T06:52:31;-1.30;99.90
17385;DHT22;8810;48.680;8.894;2022-11-27T06:54:58;-1.30;99.90
17385;DHT22;8810;48.680;8.894;2022-11-27T06:57:25;-1.30;99.90
17385;DHT22;8810;48.680;8.894;2022-11-27T06:59:52;-1.30;99.90
17385;DHT22;8810;48.680;8.894;2022-11-27T07:02:19;-1.30;99.90
17385;DHT22;8810;48.680;8.894;2022-11-27T07:04:46;-1.30;99.90
17385;DHT22;8810;48.680;8.894;2022-11-27T07:07:12;-1.20;99.90
17385;DHT22;8810;48.680;8.894;2022-11-27T07:09:41;-1.20;99.90
17385;DHT22;8810;48.680;8.894;2022-11-27T07:12:08;-1.10;99.90
17385;DHT22;8810;48.680;8.894;2022-11-27T07:14:35;-1.00;99.90
17385;DHT22;8810;48.680;8.894;2022-11-27T07:17:02;-0.90;99.90
17385;DHT22;8810;48.680;8.894;2022-11-27T07:19:29;-0.90;99.90
17385;DHT22;8810;48.680;8.894;2022-11-27T07:21:56;-0.90;99.90
17385;DHT22;8810;48.680;8.894;2022-11-27T07:24:22;-0.80;99.90
17385;DHT22;8810;48.680;8.894;2022-11-27T07:26:50;-0.80;99.90
17385;DHT22;8810;48.680;8.894;2022-11-27T07:29:17;-0.80;99.90
17385;DHT22;8810;48.680;8.894;2022-11-27T07:31:44;-0.80;99.90
17385;DHT22;8810;48.680;8.894;2022-11-27T07:34:11;-0.70;99.90
17385;DHT22;8810;48.680;8.894;2022-11-27T07:36:38;-0.60;99.90
17385;DHT22;8810;48.680;8.894;2022-11-27T07:39:04;-0.50;99.90
17385;DHT22;8810;48.680;8.894;2022-11-27T07:41:31;-0.40;99.90
17385;DHT22;8810;48.680;8.894;2022-11-27T07:44:00;-0.30;99.90
17385;DHT22;8810;48.680;8.894;2022-11-27T07:46:27;-0.30;99.90
17385;DHT22;8810;48.680;8.894;2022-11-27T07:48:54;-0.20;99.90
17385;DHT22;8810;48.680;8.894;2022-11-27T07:51:21;-0.10;99.90
17385;DHT22;8810;48.680;8.894;2022-11-27T07:53:48;-0.10;99.90
17385;DHT22;8810;48.680;8.894;2022-11-27T07:56:16;0.00;99.90
17385;DHT22;8810;48.680;8.894;2022-11-27T07:58:43;0.10;99.90
17385;DHT22;8810;48.680;8.894;2022-11-27T08:01:13;0.20;99.90
17385;DHT22;8810;48.680;8.894;2022-11-27T08:03:40;0.40;99.90
17385;DHT22;8810;48.680;8.894;2022-11-27T08:06:14;0.60;99.90
17385;DHT22;8810;48.680;8.894;2022-11-27T08:08:41;0.80;99.90
17385;DHT22;8810;48.680;8.894;2022-11-27T08:11:14;0.90;99.90
17385;DHT22;8810;48.680;8.894;2022-11-27T08:13:42;0.90;99.90
17385;DHT22;8810;48.680;8.894;2022-11-27T08:16:09;0.90;99.90
17385;DHT22;8810;48.680;8.894;2022-11-27T08:18:37;1.00;99.90
17385;DHT22;8810;48.680;8.894;2022-11-27T08:21:04;1.10;99.90
17385;DHT22;8810;48.680;8.894;2022-11-27T08:23:31;1.10;99.90
17385;DHT22;8810;48.680;8.894;2022-11-27T08:25:58;1.20;99.90
17385;DHT22;8810;48.680;8.894;2022-11-27T08:28:25;1.20;99.90
17385;DHT22;8810;48.680;8.894;2022-11-27T08:30:55;1.30;99.90
17385;DHT22;8810;48.680;8.894;2022-11-27T08:33:23;1.60;99.90
17385;DHT22;8810;48.680;8.894;2022-11-27T08:35:51;2.10;99.90
17385;DHT22;8810;48.680;8.894;2022-11-27T08:38:19;2.50;99.90
17385;DHT22;8810;48.680;8.894;2022-11-27T08:40:53;2.90;99.90
17385;DHT22;8810;48.680;8.894;2022-11-27T08:43:19;3.20;99.90
17385;DHT22;8810;48.680;8.894;2022-11-27T08:45:47;3.30;99.90
17385;DHT22;8810;48.680;8.894;2022-11-27T08:48:13;3.40;99.90
17385;DHT22;8810;48.680;8.894;2022-11-27T08:50:40;3.40;99.90
17385;DHT22;8810;48.680;8.894;2022-11-27T08:53:09;3.60;99.90
17385;DHT22;8810;48.680;8.894;2022-11-27T08:55:36;3.60;99.90
17385;DHT22;8810;48.680;8.894;2022-11-27T08:58:03;3.70;99.90
17385;DHT22;8810;48.680;8.894;2022-11-27T09:00:31;3.70;99.90
17385;DHT22;8810;48.680;8.894;2022-11-27T09:02:58;3.70;99.90
17385;DHT22;8810;48.680;8.894;2022-11-27T09:05:25;3.70;99.90
17385;DHT22;8810;48.680;8.894;2022-11-27T09:07:52;3.80;99.90
17385;DHT22;8810;48.680;8.894;2022-11-27T09:10:20;3.90;99.90
17385;DHT22;8810;48.680;8.894;2022-11-27T09:12:47;4.00;99.90
17385;DHT22;8810;48.680;8.894;2022-11-27T09:15:14;4.10;99.90
17385;DHT22;8810;48.680;8.894;2022-11-27T09:17:41;4.10;99.90
17385;DHT22;8810;48.680;8.894;2022-11-27T09:20:09;4.10;99.90
17385;DHT22;8810;48.680;8.894;2022-11-27T09:22:38;4.10;99.90
17385;DHT22;8810;48.680;8.894;2022-11-27T09:25:06;4.20;99.90
17385;DHT22;8810;48.680;8.894;2022-11-27T09:27:35;4.10;99.90
17385;DHT22;8810;48.680;8.894;2022-11-27T09:30:04;4.10;99.90
17385;DHT22;8810;48.680;8.894;2022-11-27T09:32:31;4.10;99.90
17385;DHT22;8810;48.680;8.894;2022-11-27T09:34:58;4.20;99.90
17385;DHT22;8810;48.680;8.894;2022-11-27T09:37:25;4.30;99.90
17385;DHT22;8810;48.680;8.894;2022-11-27T09:39:52;4.50;99.90
17385;DHT22;8810;48.680;8.894;2022-11-27T09:42:34;4.80;99.90
17385;DHT22;8810;48.680;8.894;2022-11-27T09:45:05;5.10;99.90
17385;DHT22;8810;48.680;8.894;2022-11-27T09:47:38;5.30;99.90
17385;DHT22;8810;48.680;8.894;2022-11-27T09:50:11;5.50;99.90
17385;DHT22;8810;48.680;8.894;2022-11-27T09:52:42;5.70;99.90
17385;DHT22;8810;48.680;8.894;2022-11-27T09:55:14;5.90;99.90
17385;DHT22;8810;48.680;8.894;2022-11-27T09:57:48;6.10;99.90
17385;DHT22;8810;48.680;8.894;2022-11-27T10:00:19;6.30;99.90
17385;DHT22;8810;48.680;8.894;2022-11-27T10:02:46;6.40;99.90
17385;DHT22;8810;48.680;8.894;2022-11-27T10:05:18;6.70;99.90
17385;DHT22;8810;48.680;8.894;2022-11-27T10:10:52;7.10;99.90
17385;DHT22;8810;48.680;8.894;2022-11-27T10:13:39;7.10;99.90
17385;DHT22;8810;48.680;8.894;2022-11-27T10:16:17;7.00;99.90
17385;DHT22;8810;48.680;8.894;2022-11-27T10:18:48;6.80;99.90
17385;DHT22;8810;48.680;8.894;2022-11-27T10:21:24;6.60;99.90
17385;DHT22;8810;48.680;8.894;2022-11-27T10:23:57;6.50;99.90
17385;DHT22;8810;48.680;8.894;2022-11-27T10:26:33;6.40;99.90
17385;DHT22;8810;48.680;8.894;2022-11-27T10:29:08;6.30;99.90
17385;DHT22;8810;48.680;8.894;2022-11-27T10:31:42;6.30;99.90
17385;DHT22;8810;48.680;8.894;2022-11-27T10:34:20;6.20;99.90
17385;DHT22;8810;48.680;8.894;2022-11-27T10:36:51;6.20;99.90
17385;DHT22;8810;48.680;8.894;2022-11-27T10:39:27;6.40;99.90
17385;DHT22;8810;48.680;8.894;2022-11-27T10:42:02;6.70;99.90
17385;DHT22;8810;48.680;8.894;2022-11-27T10:44:33;7.20;99.90
17385;DHT22;8810;48.680;8.894;2022-11-27T10:47:05;7.50;99.90
17385;DHT22;8810;48.680;8.894;2022-11-27T10:49:34;7.80;99.90
17385;DHT22;8810;48.680;8.894;2022-11-27T10:52:04;8.10;99.90
17385;DHT22;8810;48.680;8.894;2022-11-27T10:54:36;8.30;99.90
17385;DHT22;8810;48.680;8.894;2022-11-27T11:00:09;9.00;99.90
17385;DHT22;8810;48.680;8.894;2022-11-27T11:02:39;9.30;99.90
17385;DHT22;8810;48.680;8.894;2022-11-27T11:05:19;9.60;99.90
17385;DHT22;8810;48.680;8.894;2022-11-27T11:07:59;9.80;99.90
17385;DHT22;8810;48.680;8.894;2022-11-27T11:10:32;9.90;99.90
17385;DHT22;8810;48.680;8.894;2022-11-27T11:13:13;10.00;99.90
17385;DHT22;8810;48.680;8.894;2022-11-27T11:15:50;10.00;99.90
17385;DHT22;8810;48.680;8.894;2022-11-27T11:18:19;10.10;99.90
17385;DHT22;8810;48.680;8.894;2022-11-27T11:20:49;10.00;99.90
17385;DHT22;8810;48.680;8.894;2022-11-27T11:23:22;9.80;99.90
17385;DHT22;8810;48.680;8.894;2022-11-27T11:25:51;9.70;99.90
17385;DHT22;8810;48.680;8.894;2022-11-27T11:28:19;9.60;99.90
17385;DHT22;8810;48.680;8.894;2022-11-27T11:30:53;9.50;99.90
17385;DHT22;8810;48.680;8.894;2022-11-27T11:33:22;9.40;99.90
17385;DHT22;8810;48.680;8.894;2022-11-27T11:35:54;9.40;99.90
17385;DHT22;8810;48.680;8.894;2022-11-27T11:38:28;9.40;99.90
17385;DHT22;8810;48.680;8.894;2022-11-27T11:40:58;9.50;99.90
17385;DHT22;8810;48.680;8.894;2022-11-27T11:43:27;9.70;99.90
17385;DHT22;8810;48.680;8.894;2022-11-27T11:46:02;9.80;99.90
17385;DHT22;8810;48.680;8.894;2022-11-27T11:48:33;10.00;99.90
17385;DHT22;8810;48.680;8.894;2022-11-27T11:51:03;10.20;99.90
17385;DHT22;8810;48.680;8.894;2022-11-27T11:53:34;10.50;99.90
17385;DHT22;8810;48.680;8.894;2022-11-27T11:56:14;10.80;99.90
17385;DHT22;8810;48.680;8.894;2022-11-27T11:58:51;10.90;99.90
17385;DHT22;8810;48.680;8.894;2022-11-27T12:01:31;10.90;99.90
17385;DHT22;8810;48.680;8.894;2022-11-27T12:04:29;11.10;99.90
17385;DHT22;8810;48.680;8.894;2022-11-27T12:07:10;11.40;99.90
17385;DHT22;8810;48.680;8.894;2022-11-27T12:09:47;11.70;99.90
17385;DHT22;8810;48.680;8.894;2022-11-27T12:12:28;12.00;99.90
17385;DHT22;8810;48.680;8.894;2022-11-27T12:15:02;12.10;99.90
17385;DHT22;8810;48.680;8.894;2022-11-27T12:17:45;12.20;99.90
17385;DHT22;8810;48.680;8.894;2022-11-27T12:20:18;12.40;99.90
17385;DHT22;8810;48.680;8.894;2022-11-27T12:25:58;12.20;99.90
17385;DHT22;8810;48.680;8.894;2022-11-27T12:28:42;12.00;99.90
17385;DHT22;8810;48.680;8.894;2022-11-27T12:31:21;11.60;99.90
17385;DHT22;8810;48.680;8.894;2022-11-27T12:33:59;11.60;99.90
17385;DHT22;8810;48.680;8.894;2022-11-27T12:36:44;11.80;99.90
17385;DHT22;8810;48.680;8.894;2022-11-27T12:39:21;12.10;99.90
17385;DHT22;8810;48.680;8.894;2022-11-27T12:42:11;11.90;99.90
17385;DHT22;8810;48.680;8.894;2022-11-27T12:44:51;11.60;99.90
17385;DHT22;8810;48.680;8.894;2022-11-27T12:47:24;11.40;99.90
17385;DHT22;8810;48.680;8.894;2022-11-27T12:49:55;11.40;99.90
17385;DHT22;8810;48.680;8.894;2022-11-27T12:52:30;11.50;99.90
17385;DHT22;8810;48.680;8.894;2022-11-27T12:55:02;11.60;99.90
17385;DHT22;8810;48.680;8.894;2022-11-27T12:57:35;11.80;99.90
17385;DHT22;8810;48.680;8.894;2022-11-27T13:00:06;11.10;99.90
17385;DHT22;8810;48.680;8.894;2022-11-27T13:02:36;10.70;99.90
17385;DHT22;8810;48.680;8.894;2022-11-27T13:05:06;10.30;99.90
17385;DHT22;8810;48.680;8.894;2022-11-27T13:07:40;10.20;99.90
17385;DHT22;8810;48.680;8.894;2022-11-27T13:10:15;9.80;99.90
17385;DHT22;8810;48.680;8.894;2022-11-27T13:12:49;9.90;99.90
17385;DHT22;8810;48.680;8.894;2022-11-27T13:15:22;10.00;99.90
17385;DHT22;8810;48.680;8.894;2022-11-27T13:17:55;9.70;99.90
17385;DHT22;8810;48.680;8.894;2022-11-27T13:20:29;9.80;99.90
17385;DHT22;8810;48.680;8.894;2022-11-27T13:23:00;9.70;99.90
17385;DHT22;8810;48.680;8.894;2022-11-27T13:25:29;9.60;99.90
17385;DHT22;8810;48.680;8.894;2022-11-27T13:27:57;9.60;99.90
17385;DHT22;8810;48.680;8.894;2022-11-27T13:30:28;9.50;99.90
17385;DHT22;8810;48.680;8.894;2022-11-27T13:32:58;9.40;99.90
17385;DHT22;8810;48.680;8.894;2022-11-27T13:35:29;9.30;99.90
17385;DHT22;8810;48.680;8.894;2022-11-27T13:38:04;9.20;99.90
17385;DHT22;8810;48.680;8.894;2022-11-27T13:40:37;9.10;99.90
17385;DHT22;8810;48.680;8.894;2022-11-27T13:43:12;8.90;99.90
17385;DHT22;8810;48.680;8.894;2022-11-27T13:45:40;8.80;99.90
17385;DHT22;8810;48.680;8.894;2022-11-27T13:48:28;8.70;99.90
17385;DHT22;8810;48.680;8.894;2022-11-27T13:50:57;8.60;99.90
17385;DHT22;8810;48.680;8.894;2022-11-27T13:53:34;8.40;99.90
17385;DHT22;8810;48.680;8.894;2022-11-27T13:56:03;8.30;99.90
17385;DHT22;8810;48.680;8.894;2022-11-27T13:58:32;8.20;99.90
17385;DHT22;8810;48.680;8.894;2022-11-27T14:01:14;8.00;99.90
17385;DHT22;8810;48.680;8.894;2022-11-27T14:03:41;8.00;99.90
17385;DHT22;8810;48.680;8.894;2022-11-27T14:06:20;7.90;99.90
17385;DHT22;8810;48.680;8.894;2022-11-27T14:08:55;7.90;99.90
17385;DHT22;8810;48.680;8.894;2022-11-27T14:11:31;7.90;99.90
17385;DHT22;8810;48.680;8.894;2022-11-27T14:14:00;7.80;99.90
17385;DHT22;8810;48.680;8.894;2022-11-27T14:16:30;7.90;99.90
17385;DHT22;8810;48.680;8.894;2022-11-27T14:18:59;7.90;99.90
17385;DHT22;8810;48.680;8.894;2022-11-27T14:21:34;7.80;99.90
17385;DHT22;8810;48.680;8.894;2022-11-27T14:24:26;7.80;99.90
17385;DHT22;8810;48.680;8.894;2022-11-27T14:26:59;7.80;99.90
17385;DHT22;8810;48.680;8.894;2022-11-27T14:29:29;7.80;99.90
17385;DHT22;8810;48.680;8.894;2022-11-27T14:31:57;7.70;99.90
17385;DHT22;8810;48.680;8.894;2022-11-27T14:34:26;7.80;99.90
17385;DHT22;8810;48.680;8.894;2022-11-27T14:36:53;7.80;99.90
17385;DHT22;8810;48.680;8.894;2022-11-27T14:39:23;7.80;99.90
17385;DHT22;8810;48.680;8.894;2022-11-27T14:42:00;7.70;99.90
17385;DHT22;8810;48.680;8.894;2022-11-27T14:44:28;7.70;99.90
17385;DHT22;8810;48.680;8.894;2022-11-27T14:46:58;7.70;99.90
17385;DHT22;8810;48.680;8.894;2022-11-27T14:49:27;7.70;99.90
17385;DHT22;8810;48.680;8.894;2022-11-27T14:51:55;7.60;99.90
17385;DHT22;8810;48.680;8.894;2022-11-27T14:54:24;7.50;99.90
17385;DHT22;8810;48.680;8.894;2022-11-27T14:56:52;7.50;99.90
17385;DHT22;8810;48.680;8.894;2022-11-27T14:59:22;7.40;99.90
17385;DHT22;8810;48.680;8.894;2022-11-27T15:02:01;7.40;99.90
17385;DHT22;8810;48.680;8.894;2022-11-27T15:04:33;7.30;99.90
17385;DHT22;8810;48.680;8.894;2022-11-27T15:07:02;7.30;99.90
17385;DHT22;8810;48.680;8.894;2022-11-27T15:09:31;7.30;99.90
17385;DHT22;8810;48.680;8.894;2022-11-27T15:12:05;7.10;99.90
17385;DHT22;8810;48.680;8.894;2022-11-27T15:14:35;7.10;99.90
17385;DHT22;8810;48.680;8.894;2022-11-27T15:17:02;7.10;99.90
17385;DHT22;8810;48.680;8.894;2022-11-27T15:19:32;7.00;99.90
17385;DHT22;8810;48.680;8.894;2022-11-27T15:22:01;6.90;99.90
17385;DHT22;8810;48.680;8.894;2022-11-27T15:24:30;6.80;99.90
17385;DHT22;8810;48.680;8.894;2022-11-27T15:27:17;6.80;99.90
17385;DHT22;8810;48.680;8.894;2022-11-27T15:30:07;6.70;99.90
17385;DHT22;8810;48.680;8.894;2022-11-27T15:32:43;6.60;99.90
17385;DHT22;8810;48.680;8.894;2022-11-27T15:35:21;6.60;99.90
17385;DHT22;8810;48.680;8.894;2022-11-27T15:37:49;6.50;99.90
17385;DHT22;8810;48.680;8.894;2022-11-27T15:40:27;6.50;99.90
17385;DHT22;8810;48.680;8.894;2022-11-27T15:42:54;6.50;99.90
17385;DHT22;8810;48.680;8.894;2022-11-27T15:45:27;6.50;99.90
17385;DHT22;8810;48.680;8.894;2022-11-27T15:47:57;6.50;99.90
17385;DHT22;8810;48.680;8.894;2022-11-27T15:50:25;6.40;99.90
17385;DHT22;8810;48.680;8.894;2022-11-27T15:52:52;6.40;99.90
17385;DHT22;8810;48.680;8.894;2022-11-27T15:55:19;6.40;99.90
17385;DHT22;8810;48.680;8.894;2022-11-27T15:57:46;6.40;99.90
17385;DHT22;8810;48.680;8.894;2022-11-27T16:00:13;6.40;99.90
17385;DHT22;8810;48.680;8.894;2022-11-27T16:02:42;6.40;99.90
17385;DHT22;8810;48.680;8.894;2022-11-27T16:05:09;6.30;99.90
17385;DHT22;8810;48.680;8.894;2022-11-27T16:07:36;6.30;99.90
17385;DHT22;8810;48.680;8.894;2022-11-27T16:10:03;6.40;99.90
17385;DHT22;8810;48.680;8.894;2022-11-27T16:12:30;6.30;99.90
17385;DHT22;8810;48.680;8.894;2022-11-27T16:14:57;6.30;99.90
17385;DHT22;8810;48.680;8.894;2022-11-27T16:17:24;6.30;99.90
17385;DHT22;8810;48.680;8.894;2022-11-27T16:19:52;6.30;99.90
17385;DHT22;8810;48.680;8.894;2022-11-27T16:22:19;6.30;99.90
17385;DHT22;8810;48.680;8.894;2022-11-27T16:24:46;6.30;99.90